createdAt,value
2022-12-09T00:04:50.632Z,64.43
2022-12-09T00:09:56.237Z,54.55
2022-12-09T00:15:02.057Z,56.03
2022-12-09T00:20:08.153Z,43.27
2022-12-09T00:25:14.355Z,44.30
2022-12-09T00:30:20.198Z,59.37
2022-12-09T00:35:26.194Z,50.60
2022-12-09T00:40:32.002Z,41.43
2022-12-09T00:45:38.157Z,61.78
2022-12-09T00:50:44.237Z,35.35
2022-12-09T01:00:56.244Z,38.67
2022-12-09T01:11:11.903Z,42.55
2022-12-09T01:16:22.488Z,38.17
2022-12-09T01:21:32.026Z,41.33
2022-12-09T01:26:37.774Z,42.95
2022-12-09T01:31:43.667Z,47.97
2022-12-09T01:36:50.125Z,60.97
2022-12-09T01:41:56.099Z,45.80
2022-12-09T01:47:02.533Z,34.63
2022-12-09T01:52:20.295Z,44.90
2022-12-09T01:57:26.500Z,31.10
2022-12-09T02:02:34.273Z,66.55
2022-12-09T02:07:40.625Z,66.00
2022-12-09T02:12:58.114Z,41.20
2022-12-09T02:18:05.410Z,56.90
2022-12-09T02:23:15.175Z,60.90
2022-12-09T02:28:39.180Z,50.38
2022-12-09T02:34:03.775Z,37.22
2022-12-09T02:39:14.066Z,35.65
2022-12-09T02:44:23.037Z,50.47
2022-12-09T02:49:31.412Z,28.45
2022-12-09T02:54:40.229Z,51.53
2022-12-09T02:59:46.097Z,63.97
2022-12-09T03:05:11.698Z,63.87
2022-12-09T03:10:40.537Z,55.38
2022-12-09T03:15:50.262Z,74.93
2022-12-09T03:20:57.331Z,42.03
2022-12-09T03:26:04.618Z,50.15
2022-12-09T03:31:11.727Z,53.35
2022-12-09T03:36:18.037Z,55.50
2022-12-09T03:41:34.762Z,72.88
2022-12-09T03:46:42.590Z,53.75
2022-12-09T03:51:51.124Z,46.22
2022-12-09T03:56:59.562Z,39.63
2022-12-09T04:02:08.597Z,55.45
2022-12-09T04:07:15.336Z,47.17
2022-12-09T04:17:26.398Z,49.60
2022-12-09T04:22:32.865Z,74.88
2022-12-09T04:27:41.678Z,65.30
2022-12-09T04:32:47.634Z,72.90
2022-12-09T04:37:53.450Z,42.83
2022-12-09T04:42:58.724Z,102.25
2022-12-09T04:48:04.857Z,47.17
2022-12-09T04:53:11.010Z,58.47
2022-12-09T04:58:16.398Z,57.07
2022-12-09T05:03:22.490Z,91.70
2022-12-09T05:08:31.448Z,69.70
2022-12-09T05:13:37.560Z,75.10
2022-12-09T05:18:43.325Z,50.27
2022-12-09T05:23:50.588Z,50.17
2022-12-09T05:28:57.296Z,93.13
2022-12-09T05:34:06.307Z,92.75
2022-12-09T05:39:12.764Z,54.85
2022-12-09T05:44:19.449Z,52.53
2022-12-09T05:49:28.791Z,92.93
2022-12-09T05:54:36.881Z,53.95
2022-12-09T05:59:43.151Z,58.92
2022-12-09T06:09:55.000Z,89.07
2022-12-09T06:15:01.410Z,54.63
2022-12-09T06:20:13.641Z,77.10
2022-12-09T06:25:20.397Z,81.15
2022-12-09T06:30:25.823Z,62.03
2022-12-09T06:35:31.760Z,64.27
2022-12-09T06:40:37.622Z,49.40
2022-12-09T06:45:43.431Z,87.43
2022-12-09T06:50:49.211Z,87.47
2022-12-09T06:55:55.895Z,65.97
2022-12-09T07:01:21.745Z,80.47
2022-12-09T07:06:32.316Z,58.08
2022-12-09T07:11:39.152Z,63.45
2022-12-09T07:16:46.080Z,77.43
2022-12-09T07:21:52.405Z,59.33
2022-12-09T07:32:05.746Z,55.17
2022-12-09T07:37:12.079Z,44.65
2022-12-09T07:42:18.007Z,71.10
2022-12-09T07:47:31.047Z,67.25
2022-12-09T07:52:42.935Z,66.55
2022-12-09T07:57:49.109Z,49.30
2022-12-09T08:02:55.454Z,61.85
2022-12-09T08:13:06.748Z,69.72
2022-12-09T08:18:12.781Z,49.92
2022-12-09T08:23:19.332Z,62.95
2022-12-09T08:28:26.297Z,54.72
2022-12-09T08:33:34.377Z,55.47
2022-12-09T08:38:40.091Z,49.10
2022-12-09T08:43:46.302Z,68.90
2022-12-09T08:48:52.188Z,44.63
2022-12-09T08:53:59.538Z,42.15
2022-12-09T08:59:06.094Z,51.20
2022-12-09T09:04:14.339Z,59.13
2022-12-09T09:09:21.571Z,49.35
2022-12-09T09:14:28.575Z,55.25
2022-12-09T09:19:34.302Z,39.50
2022-12-09T09:24:40.334Z,56.80
2022-12-09T09:29:46.291Z,68.20
2022-12-09T09:34:52.272Z,69.35
2022-12-09T09:39:58.244Z,39.30
2022-12-09T09:45:06.821Z,67.18
2022-12-09T09:50:13.378Z,66.60
2022-12-09T09:55:26.531Z,59.40
2022-12-09T10:00:39.700Z,62.63
2022-12-09T10:05:54.986Z,54.10
2022-12-09T10:11:09.128Z,86.65
2022-12-09T10:16:17.928Z,68.85
2022-12-09T10:21:24.574Z,55.40
2022-12-09T10:26:31.986Z,72.70
2022-12-09T10:31:40.532Z,93.03
2022-12-09T10:36:48.084Z,97.47
2022-12-09T10:42:18.863Z,70.88
2022-12-09T10:47:30.073Z,103.90
2022-12-09T10:52:44.611Z,101.28
2022-12-09T10:57:50.632Z,91.68
2022-12-09T11:02:58.322Z,81.53
2022-12-09T11:08:04.826Z,69.45
2022-12-09T11:13:13.195Z,106.95
2022-12-09T11:18:28.423Z,92.90
2022-12-09T11:23:34.800Z,115.78
2022-12-09T11:33:59.250Z,123.57
2022-12-09T11:39:16.958Z,121.78
2022-12-09T11:44:25.911Z,100.45
2022-12-09T11:49:32.845Z,92.35
2022-12-09T11:54:45.408Z,65.95
2022-12-09T11:59:53.929Z,92.80
2022-12-09T12:05:03.144Z,75.03
2022-12-09T12:10:15.969Z,94.30
2022-12-09T12:15:39.739Z,87.70
2022-12-09T12:20:45.189Z,84.43
2022-12-09T12:26:22.931Z,105.35
2022-12-09T12:32:00.926Z,69.55
2022-12-09T12:37:22.971Z,59.25
2022-12-09T12:42:31.540Z,67.35
2022-12-09T12:47:41.569Z,98.05
2022-12-09T12:52:57.250Z,102.82
2022-12-09T12:58:24.106Z,107.88
2022-12-09T13:03:49.341Z,109.68
2022-12-09T13:09:03.600Z,96.85
2022-12-09T13:14:20.891Z,107.95
2022-12-09T13:19:55.015Z,106.35
2022-12-09T13:25:00.789Z,112.93
2022-12-09T13:30:14.964Z,86.30
2022-12-09T13:35:30.578Z,96.80
2022-12-09T13:40:51.531Z,97.85
2022-12-09T13:46:03.944Z,109.38
2022-12-09T13:51:10.430Z,97.22
2022-12-09T13:56:25.494Z,113.13
2022-12-09T14:01:38.622Z,90.53
2022-12-09T14:06:49.261Z,83.20
2022-12-09T14:11:59.435Z,90.35
2022-12-09T14:17:07.805Z,92.30
2022-12-09T14:22:23.593Z,100.82
2022-12-09T14:27:30.297Z,98.07
2022-12-09T14:32:54.081Z,95.43
2022-12-09T14:38:05.040Z,104.97
2022-12-09T14:43:12.393Z,68.75
2022-12-09T14:48:22.766Z,96.53
2022-12-09T14:53:28.650Z,109.22
2022-12-09T15:04:34.523Z,95.45
2022-12-09T15:09:41.698Z,97.28
2022-12-09T15:14:48.126Z,77.63
2022-12-09T15:25:23.676Z,85.70
2022-12-09T15:30:35.548Z,77.07
2022-12-09T15:35:42.733Z,80.60
2022-12-09T15:41:08.098Z,81.90
2022-12-09T15:46:15.750Z,82.38
2022-12-09T15:51:24.264Z,89.95
2022-12-09T15:56:34.450Z,110.88
2022-12-09T16:01:41.484Z,96.35
2022-12-09T16:06:50.139Z,65.78
2022-12-09T16:11:57.136Z,95.30
2022-12-09T16:17:09.615Z,94.35
2022-12-09T16:22:21.521Z,93.93
2022-12-09T16:27:28.462Z,83.90
2022-12-09T16:32:38.656Z,83.85
2022-12-09T16:38:07.468Z,81.18
2022-12-09T16:43:20.291Z,63.72
2022-12-09T16:48:27.326Z,55.05
2022-12-09T16:53:35.454Z,89.65
2022-12-09T16:58:43.852Z,79.90
2022-12-09T17:03:55.377Z,86.50
2022-12-09T17:09:01.056Z,82.85
2022-12-09T17:14:10.731Z,62.25
2022-12-09T17:24:22.372Z,80.57
2022-12-09T17:29:28.136Z,61.28
2022-12-09T17:34:34.010Z,90.27
2022-12-09T17:39:40.771Z,82.33
2022-12-09T17:44:46.280Z,58.28
2022-12-09T17:49:52.027Z,84.70
2022-12-09T17:54:58.072Z,87.82
2022-12-09T18:00:04.637Z,61.30
2022-12-09T18:05:16.932Z,70.38
2022-12-09T18:10:22.577Z,85.67
2022-12-09T18:15:28.830Z,67.80
2022-12-09T18:20:34.323Z,76.80
2022-12-09T18:25:41.629Z,80.97
2022-12-09T18:30:47.007Z,60.13
2022-12-09T18:35:52.671Z,75.40
2022-12-09T18:41:04.320Z,86.07
2022-12-09T18:46:12.439Z,81.03
2022-12-09T18:51:18.820Z,64.57
2022-12-09T18:56:27.223Z,71.00
2022-12-09T19:01:33.545Z,75.07
2022-12-09T19:06:41.586Z,80.97
2022-12-09T19:11:47.968Z,88.82
2022-12-09T19:16:53.937Z,80.38
2022-12-09T19:21:59.951Z,64.43
2022-12-09T19:27:05.650Z,72.82
2022-12-09T19:32:36.523Z,64.70
2022-12-09T19:37:37.070Z,69.50
2022-12-09T19:42:43.510Z,74.87
2022-12-09T19:52:54.161Z,52.70
2022-12-09T19:57:59.642Z,62.87
2022-12-09T20:03:05.094Z,64.15
2022-12-09T20:08:10.996Z,57.37
2022-12-09T20:13:17.055Z,66.53
2022-12-09T20:18:22.443Z,43.10
2022-12-09T20:23:28.221Z,64.30
2022-12-09T20:28:34.056Z,53.43
2022-12-09T20:33:40.081Z,41.10
2022-12-09T20:38:47.351Z,59.70
2022-12-09T20:43:54.427Z,49.50
2022-12-09T20:49:00.565Z,35.92
2022-12-09T20:54:09.453Z,61.33
2022-12-09T20:59:15.748Z,45.88
2022-12-09T21:04:21.270Z,59.47
2022-12-09T21:09:28.611Z,56.60
2022-12-09T21:14:37.617Z,51.60
2022-12-09T21:19:43.032Z,46.78
2022-12-09T21:24:49.383Z,59.58
2022-12-09T21:29:54.806Z,32.50
2022-12-09T21:35:03.240Z,50.28
2022-12-09T21:40:09.493Z,29.80
2022-12-09T21:45:15.506Z,45.30
2022-12-09T21:50:21.023Z,57.92
2022-12-09T21:55:26.249Z,39.47
2022-12-09T22:00:32.193Z,53.90
2022-12-09T22:05:38.211Z,53.85
2022-12-09T22:10:44.043Z,44.97
2022-12-09T22:15:49.495Z,47.23
2022-12-09T22:21:23.729Z,47.87
2022-12-09T22:26:22.241Z,42.40
2022-12-09T22:31:29.376Z,47.17
2022-12-09T22:36:38.214Z,42.88
2022-12-09T22:41:45.100Z,42.58
2022-12-09T22:46:51.091Z,43.03
2022-12-09T22:52:00.462Z,47.23
2022-12-09T22:57:06.780Z,46.28
2022-12-09T23:02:12.349Z,33.47
2022-12-09T23:07:18.171Z,36.93
2022-12-09T23:12:23.939Z,41.10
2022-12-09T23:17:29.707Z,35.20
2022-12-09T23:22:35.485Z,41.40
2022-12-09T23:27:41.249Z,41.10
2022-12-09T23:32:47.069Z,25.50
2022-12-09T23:38:04.589Z,42.47
2022-12-09T23:43:09.857Z,43.42
2022-12-09T23:48:15.328Z,45.35
2022-12-09T23:53:21.124Z,25.88
2022-12-09T23:58:26.885Z,38.83
